Terminal Aerodrome Forecast
Issued by NWS Northern Indiana

Home | Current Version | Previous Version | Graphics & Text | Print | Product List | Glossary On
Versions: 1 2 3 4 5 6 7 8 9 10 11 12 13 14 15 16
000
FTUS43 KIWX 231121
TAFFWA
TAF
KFWA 231121Z 2312/2412 00000KT P6SM SCT025 BKN045
     FM231400 24006KT P6SM VCTS BKN040CB
     FM232200 30008KT P6SM BKN060=

USA.gov is the U.S. government's official web portal to all federal, state and local government web resources and services.